Terminal Aerodrome Forecast
Issued by NWS

Home | Current Version | Previous Version | Text Only | Print | Product List | Glossary On
Versions: 1 2 3 4 5 6 7 8 9 10 11 12 13 14 15 16 17 18 19 20 21 22 23 24 25 26
000
FTUS43 KDLH 302000 AAA
TAFHIB
TAF AMD
KHIB 302009Z 3020/3118 VRB04KT P6SM OVC070
     FM302100 09006KT P6SM -RA SCT020 OVC030
      TEMPO 3023/3103 3SM -RASN SCT010 OVC020
     FM310300 VRB04KT 2SM -RASN OVC012
     FM310800 VRB03KT P6SM OVC010
     FM311300 31014G20KT P6SM BKN020=

USA.gov is the U.S. government's official web portal to all federal, state and local government web resources and services.